sensor_id;sensor_type;location;lat;lon;timestamp;P1;durP1;ratioP1;P2;durP2;ratioP2
59074;SDS011;44860;53.020;6.738;2024-01-15T00:00:07;10.38;;;1.85;;
59074;SDS011;44860;53.020;6.738;2024-01-15T00:02:33;13.02;;;2.08;;
59074;SDS011;44860;53.020;6.738;2024-01-15T00:04:59;16.55;;;2.72;;
59074;SDS011;44860;53.020;6.738;2024-01-15T00:07:25;12.27;;;2.10;;
59074;SDS011;44860;53.020;6.738;2024-01-15T00:09:50;16.52;;;2.50;;
59074;SDS011;44860;53.020;6.738;2024-01-15T00:12:16;14.35;;;2.05;;
59074;SDS011;44860;53.020;6.738;2024-01-15T00:14:41;13.02;;;2.30;;
59074;SDS011;44860;53.020;6.738;2024-01-15T00:17:07;14.70;;;1.75;;
59074;SDS011;44860;53.020;6.738;2024-01-15T00:19:33;15.55;;;2.10;;
59074;SDS011;44860;53.020;6.738;2024-01-15T00:21:58;13.93;;;2.08;;
59074;SDS011;44860;53.020;6.738;2024-01-15T00:24:24;17.52;;;2.40;;
59074;SDS011;44860;53.020;6.738;2024-01-15T00:26:50;13.70;;;2.20;;
59074;SDS011;44860;53.020;6.738;2024-01-15T00:29:16;17.70;;;3.03;;
59074;SDS011;44860;53.020;6.738;2024-01-15T00:31:41;13.98;;;1.85;;
59074;SDS011;44860;53.020;6.738;2024-01-15T00:34:07;12.80;;;2.15;;
59074;SDS011;44860;53.020;6.738;2024-01-15T00:36:33;14.07;;;2.10;;
59074;SDS011;44860;53.020;6.738;2024-01-15T00:38:58;14.68;;;2.33;;
59074;SDS011;44860;53.020;6.738;2024-01-15T00:41:24;12.00;;;2.10;;
59074;SDS011;44860;53.020;6.738;2024-01-15T00:43:52;14.05;;;2.53;;
59074;SDS011;44860;53.020;6.738;2024-01-15T00:46:18;16.92;;;3.88;;
59074;SDS011;44860;53.020;6.738;2024-01-15T00:48:44;18.48;;;5.90;;
59074;SDS011;44860;53.020;6.738;2024-01-15T00:51:10;14.90;;;4.75;;
59074;SDS011;44860;53.020;6.738;2024-01-15T00:53:35;25.95;;;8.77;;
59074;SDS011;44860;53.020;6.738;2024-01-15T00:56:01;29.48;;;10.43;;
59074;SDS011;44860;53.020;6.738;2024-01-15T00:58:28;43.80;;;18.67;;
59074;SDS011;44860;53.020;6.738;2024-01-15T01:00:54;56.67;;;23.52;;
59074;SDS011;44860;53.020;6.738;2024-01-15T01:03:20;43.90;;;17.08;;
59074;SDS011;44860;53.020;6.738;2024-01-15T01:05:48;40.13;;;16.92;;
59074;SDS011;44860;53.020;6.738;2024-01-15T01:08:14;24.58;;;8.15;;
59074;SDS011;44860;53.020;6.738;2024-01-15T01:10:40;38.42;;;17.35;;
59074;SDS011;44860;53.020;6.738;2024-01-15T01:13:08;29.33;;;12.50;;
59074;SDS011;44860;53.020;6.738;2024-01-15T01:15:34;51.17;;;22.52;;
59074;SDS011;44860;53.020;6.738;2024-01-15T01:17:59;56.33;;;27.80;;
59074;SDS011;44860;53.020;6.738;2024-01-15T01:20:25;40.65;;;19.63;;
59074;SDS011;44860;53.020;6.738;2024-01-15T01:22:50;35.75;;;16.35;;
59074;SDS011;44860;53.020;6.738;2024-01-15T01:25:16;41.42;;;23.35;;
59074;SDS011;44860;53.020;6.738;2024-01-15T01:27:42;33.45;;;18.25;;
59074;SDS011;44860;53.020;6.738;2024-01-15T01:30:08;30.63;;;15.05;;
59074;SDS011;44860;53.020;6.738;2024-01-15T01:32:34;26.23;;;8.38;;
59074;SDS011;44860;53.020;6.738;2024-01-15T01:35:00;17.27;;;5.15;;
59074;SDS011;44860;53.020;6.738;2024-01-15T01:37:26;15.75;;;3.58;;
59074;SDS011;44860;53.020;6.738;2024-01-15T01:39:51;22.38;;;10.02;;
59074;SDS011;44860;53.020;6.738;2024-01-15T01:42:17;23.27;;;8.52;;
59074;SDS011;44860;53.020;6.738;2024-01-15T01:44:43;22.45;;;5.45;;
59074;SDS011;44860;53.020;6.738;2024-01-15T01:47:08;18.92;;;6.20;;
59074;SDS011;44860;53.020;6.738;2024-01-15T01:49:34;21.30;;;7.55;;
59074;SDS011;44860;53.020;6.738;2024-01-15T01:52:02;16.98;;;5.70;;
59074;SDS011;44860;53.020;6.738;2024-01-15T01:54:29;19.88;;;8.40;;
59074;SDS011;44860;53.020;6.738;2024-01-15T01:56:57;16.83;;;5.43;;
59074;SDS011;44860;53.020;6.738;2024-01-15T01:59:23;18.65;;;7.45;;
59074;SDS011;44860;53.020;6.738;2024-01-15T02:01:51;15.15;;;5.68;;
59074;SDS011;44860;53.020;6.738;2024-01-15T02:04:19;17.02;;;4.20;;
59074;SDS011;44860;53.020;6.738;2024-01-15T02:06:45;11.63;;;3.50;;
59074;SDS011;44860;53.020;6.738;2024-01-15T02:09:11;14.93;;;4.28;;
59074;SDS011;44860;53.020;6.738;2024-01-15T02:11:40;9.30;;;2.90;;
59074;SDS011;44860;53.020;6.738;2024-01-15T02:14:07;10.02;;;2.65;;
59074;SDS011;44860;53.020;6.738;2024-01-15T02:16:34;12.07;;;2.40;;
59074;SDS011;44860;53.020;6.738;2024-01-15T02:19:00;14.80;;;2.17;;
59074;SDS011;44860;53.020;6.738;2024-01-15T02:21:25;10.38;;;2.00;;
59074;SDS011;44860;53.020;6.738;2024-01-15T02:23:53;12.15;;;1.67;;
59074;SDS011;44860;53.020;6.738;2024-01-15T02:26:19;8.73;;;1.85;;
59074;SDS011;44860;53.020;6.738;2024-01-15T02:28:46;7.20;;;1.30;;
59074;SDS011;44860;53.020;6.738;2024-01-15T02:31:13;6.47;;;1.40;;
59074;SDS011;44860;53.020;6.738;2024-01-15T02:33:38;10.18;;;1.73;;
59074;SDS011;44860;53.020;6.738;2024-01-15T02:36:04;8.63;;;1.80;;
59074;SDS011;44860;53.020;6.738;2024-01-15T02:38:30;11.25;;;2.58;;
59074;SDS011;44860;53.020;6.738;2024-01-15T02:40:56;10.05;;;2.28;;
59074;SDS011;44860;53.020;6.738;2024-01-15T02:43:22;14.07;;;2.75;;
59074;SDS011;44860;53.020;6.738;2024-01-15T02:45:47;10.23;;;2.33;;
59074;SDS011;44860;53.020;6.738;2024-01-15T02:48:13;12.57;;;3.17;;
59074;SDS011;44860;53.020;6.738;2024-01-15T02:50:38;9.45;;;2.30;;
59074;SDS011;44860;53.020;6.738;2024-01-15T02:53:04;17.67;;;3.20;;
59074;SDS011;44860;53.020;6.738;2024-01-15T02:55:30;13.05;;;2.53;;
59074;SDS011;44860;53.020;6.738;2024-01-15T02:57:56;19.23;;;4.35;;
59074;SDS011;44860;53.020;6.738;2024-01-15T03:00:21;12.25;;;2.58;;
59074;SDS011;44860;53.020;6.738;2024-01-15T03:02:47;18.55;;;2.60;;
59074;SDS011;44860;53.020;6.738;2024-01-15T03:05:15;14.10;;;2.60;;
59074;SDS011;44860;53.020;6.738;2024-01-15T03:07:41;21.90;;;3.60;;
59074;SDS011;44860;53.020;6.738;2024-01-15T03:10:07;23.17;;;4.10;;
59074;SDS011;44860;53.020;6.738;2024-01-15T03:12:33;22.55;;;4.85;;
59074;SDS011;44860;53.020;6.738;2024-01-15T03:14:59;23.92;;;4.88;;
59074;SDS011;44860;53.020;6.738;2024-01-15T03:17:25;19.88;;;4.60;;
59074;SDS011;44860;53.020;6.738;2024-01-15T03:19:50;17.77;;;4.18;;
59074;SDS011;44860;53.020;6.738;2024-01-15T03:22:16;10.40;;;1.92;;
59074;SDS011;44860;53.020;6.738;2024-01-15T03:24:42;13.55;;;1.83;;
59074;SDS011;44860;53.020;6.738;2024-01-15T03:27:08;17.63;;;2.20;;
59074;SDS011;44860;53.020;6.738;2024-01-15T03:29:34;15.55;;;2.30;;
59074;SDS011;44860;53.020;6.738;2024-01-15T03:32:00;15.02;;;2.38;;
59074;SDS011;44860;53.020;6.738;2024-01-15T03:34:25;11.57;;;2.10;;
59074;SDS011;44860;53.020;6.738;2024-01-15T03:36:51;15.75;;;2.00;;
59074;SDS011;44860;53.020;6.738;2024-01-15T03:39:17;15.93;;;2.15;;
59074;SDS011;44860;53.020;6.738;2024-01-15T03:41:42;13.38;;;1.98;;
59074;SDS011;44860;53.020;6.738;2024-01-15T03:44:08;11.70;;;1.88;;
59074;SDS011;44860;53.020;6.738;2024-01-15T03:46:34;17.70;;;2.47;;
59074;SDS011;44860;53.020;6.738;2024-01-15T03:49:00;14.35;;;1.85;;
59074;SDS011;44860;53.020;6.738;2024-01-15T03:51:25;15.23;;;2.25;;
59074;SDS011;44860;53.020;6.738;2024-01-15T03:53:51;15.13;;;2.42;;
59074;SDS011;44860;53.020;6.738;2024-01-15T03:56:16;17.98;;;2.60;;
59074;SDS011;44860;53.020;6.738;2024-01-15T03:58:42;13.98;;;2.17;;
59074;SDS011;44860;53.020;6.738;2024-01-15T04:01:11;18.08;;;2.35;;
59074;SDS011;44860;53.020;6.738;2024-01-15T04:03:37;15.38;;;2.03;;
59074;SDS011;44860;53.020;6.738;2024-01-15T04:06:03;17.80;;;2.05;;
59074;SDS011;44860;53.020;6.738;2024-01-15T04:08:29;12.57;;;2.40;;
59074;SDS011;44860;53.020;6.738;2024-01-15T04:10:55;17.95;;;2.28;;
59074;SDS011;44860;53.020;6.738;2024-01-15T04:13:21;15.20;;;2.17;;
59074;SDS011;44860;53.020;6.738;2024-01-15T04:15:47;16.77;;;2.17;;
59074;SDS011;44860;53.020;6.738;2024-01-15T04:18:13;15.57;;;2.20;;
59074;SDS011;44860;53.020;6.738;2024-01-15T04:20:38;18.65;;;2.13;;
59074;SDS011;44860;53.020;6.738;2024-01-15T04:23:04;13.00;;;1.92;;
59074;SDS011;44860;53.020;6.738;2024-01-15T04:25:30;12.45;;;1.98;;
59074;SDS011;44860;53.020;6.738;2024-01-15T04:27:56;11.70;;;2.47;;
59074;SDS011;44860;53.020;6.738;2024-01-15T04:30:21;14.10;;;1.58;;
59074;SDS011;44860;53.020;6.738;2024-01-15T04:32:47;11.18;;;1.88;;
59074;SDS011;44860;53.020;6.738;2024-01-15T04:35:12;10.50;;;1.70;;
59074;SDS011;44860;53.020;6.738;2024-01-15T04:37:39;10.13;;;1.85;;
59074;SDS011;44860;53.020;6.738;2024-01-15T04:40:05;12.27;;;2.15;;
59074;SDS011;44860;53.020;6.738;2024-01-15T04:42:31;12.18;;;1.90;;
59074;SDS011;44860;53.020;6.738;2024-01-15T04:44:57;10.93;;;1.98;;
59074;SDS011;44860;53.020;6.738;2024-01-15T04:47:23;12.10;;;1.50;;
59074;SDS011;44860;53.020;6.738;2024-01-15T04:49:48;10.98;;;1.50;;
59074;SDS011;44860;53.020;6.738;2024-01-15T04:52:14;13.45;;;1.77;;
59074;SDS011;44860;53.020;6.738;2024-01-15T04:54:40;10.38;;;1.15;;
59074;SDS011;44860;53.020;6.738;2024-01-15T04:57:06;9.18;;;1.30;;
59074;SDS011;44860;53.020;6.738;2024-01-15T04:59:31;9.75;;;1.30;;
59074;SDS011;44860;53.020;6.738;2024-01-15T05:01:57;7.20;;;1.08;;
59074;SDS011;44860;53.020;6.738;2024-01-15T05:04:23;5.50;;;1.15;;
59074;SDS011;44860;53.020;6.738;2024-01-15T05:06:50;11.07;;;1.27;;
59074;SDS011;44860;53.020;6.738;2024-01-15T05:09:15;7.97;;;1.23;;
59074;SDS011;44860;53.020;6.738;2024-01-15T05:11:42;5.22;;;0.93;;
59074;SDS011;44860;53.020;6.738;2024-01-15T05:14:08;5.93;;;0.90;;
59074;SDS011;44860;53.020;6.738;2024-01-15T05:16:34;5.97;;;0.80;;
59074;SDS011;44860;53.020;6.738;2024-01-15T05:19:00;5.30;;;0.93;;
59074;SDS011;44860;53.020;6.738;2024-01-15T05:21:25;5.22;;;0.98;;
59074;SDS011;44860;53.020;6.738;2024-01-15T05:23:51;2.85;;;0.82;;
59074;SDS011;44860;53.020;6.738;2024-01-15T05:26:17;6.05;;;1.13;;
59074;SDS011;44860;53.020;6.738;2024-01-15T05:28:42;4.05;;;0.77;;
59074;SDS011;44860;53.020;6.738;2024-01-15T05:31:08;4.50;;;0.80;;
59074;SDS011;44860;53.020;6.738;2024-01-15T05:33:34;4.80;;;1.02;;
59074;SDS011;44860;53.020;6.738;2024-01-15T05:36:00;3.38;;;0.80;;
59074;SDS011;44860;53.020;6.738;2024-01-15T05:38:27;10.05;;;1.13;;
59074;SDS011;44860;53.020;6.738;2024-01-15T05:40:53;5.47;;;1.00;;
59074;SDS011;44860;53.020;6.738;2024-01-15T05:43:18;7.28;;;1.20;;
59074;SDS011;44860;53.020;6.738;2024-01-15T05:45:44;6.80;;;1.40;;
59074;SDS011;44860;53.020;6.738;2024-01-15T05:48:10;8.10;;;1.40;;
59074;SDS011;44860;53.020;6.738;2024-01-15T05:50:37;8.88;;;1.33;;
59074;SDS011;44860;53.020;6.738;2024-01-15T05:53:03;6.90;;;1.80;;
59074;SDS011;44860;53.020;6.738;2024-01-15T05:55:29;12.38;;;1.92;;
59074;SDS011;44860;53.020;6.738;2024-01-15T05:57:54;9.82;;;1.75;;
59074;SDS011;44860;53.020;6.738;2024-01-15T06:00:20;13.93;;;1.88;;
59074;SDS011;44860;53.020;6.738;2024-01-15T06:02:46;10.80;;;2.03;;
59074;SDS011;44860;53.020;6.738;2024-01-15T06:05:12;8.38;;;1.70;;
59074;SDS011;44860;53.020;6.738;2024-01-15T06:07:37;12.23;;;2.35;;
59074;SDS011;44860;53.020;6.738;2024-01-15T06:10:03;9.25;;;1.67;;
59074;SDS011;44860;53.020;6.738;2024-01-15T06:12:29;12.88;;;2.28;;
59074;SDS011;44860;53.020;6.738;2024-01-15T06:14:56;11.68;;;1.63;;
59074;SDS011;44860;53.020;6.738;2024-01-15T06:17:21;23.52;;;7.53;;
59074;SDS011;44860;53.020;6.738;2024-01-15T06:19:47;10.77;;;1.80;;
59074;SDS011;44860;53.020;6.738;2024-01-15T06:22:13;13.00;;;1.50;;
59074;SDS011;44860;53.020;6.738;2024-01-15T06:24:38;8.77;;;1.50;;
59074;SDS011;44860;53.020;6.738;2024-01-15T06:27:04;9.35;;;1.77;;
59074;SDS011;44860;53.020;6.738;2024-01-15T06:29:30;8.13;;;1.20;;
59074;SDS011;44860;53.020;6.738;2024-01-15T06:31:57;9.90;;;1.58;;
59074;SDS011;44860;53.020;6.738;2024-01-15T06:34:22;10.88;;;1.70;;
59074;SDS011;44860;53.020;6.738;2024-01-15T06:36:48;9.68;;;1.83;;
59074;SDS011;44860;53.020;6.738;2024-01-15T06:39:13;12.93;;;2.00;;
59074;SDS011;44860;53.020;6.738;2024-01-15T06:41:39;16.60;;;2.10;;
59074;SDS011;44860;53.020;6.738;2024-01-15T06:44:11;13.88;;;2.00;;
59074;SDS011;44860;53.020;6.738;2024-01-15T06:46:44;12.43;;;1.80;;
59074;SDS011;44860;53.020;6.738;2024-01-15T06:49:10;11.52;;;1.98;;
59074;SDS011;44860;53.020;6.738;2024-01-15T06:51:36;12.70;;;1.95;;
59074;SDS011;44860;53.020;6.738;2024-01-15T06:54:02;16.10;;;2.00;;
59074;SDS011;44860;53.020;6.738;2024-01-15T06:56:28;12.05;;;1.75;;
59074;SDS011;44860;53.020;6.738;2024-01-15T06:58:53;12.30;;;2.15;;
59074;SDS011;44860;53.020;6.738;2024-01-15T07:01:19;11.93;;;1.92;;
59074;SDS011;44860;53.020;6.738;2024-01-15T07:03:45;19.10;;;3.03;;
59074;SDS011;44860;53.020;6.738;2024-01-15T07:06:11;16.33;;;1.92;;
59074;SDS011;44860;53.020;6.738;2024-01-15T07:08:37;13.23;;;2.42;;
59074;SDS011;44860;53.020;6.738;2024-01-15T07:11:05;21.23;;;2.83;;
59074;SDS011;44860;53.020;6.738;2024-01-15T07:13:31;14.15;;;2.15;;
59074;SDS011;44860;53.020;6.738;2024-01-15T07:15:57;18.50;;;2.60;;
59074;SDS011;44860;53.020;6.738;2024-01-15T07:18:23;14.27;;;1.92;;
59074;SDS011;44860;53.020;6.738;2024-01-15T07:20:48;14.80;;;2.40;;
59074;SDS011;44860;53.020;6.738;2024-01-15T07:23:14;15.98;;;2.33;;
59074;SDS011;44860;53.020;6.738;2024-01-15T07:25:40;12.73;;;2.30;;
59074;SDS011;44860;53.020;6.738;2024-01-15T07:28:06;17.45;;;3.25;;
59074;SDS011;44860;53.020;6.738;2024-01-15T07:30:32;21.23;;;6.78;;
59074;SDS011;44860;53.020;6.738;2024-01-15T07:32:57;17.67;;;6.75;;
59074;SDS011;44860;53.020;6.738;2024-01-15T07:35:23;67.68;;;49.25;;
59074;SDS011;44860;53.020;6.738;2024-01-15T07:37:48;35.17;;;25.15;;
59074;SDS011;44860;53.020;6.738;2024-01-15T07:40:14;24.27;;;6.25;;
59074;SDS011;44860;53.020;6.738;2024-01-15T07:42:40;16.88;;;5.22;;
59074;SDS011;44860;53.020;6.738;2024-01-15T07:45:07;17.48;;;7.70;;
59074;SDS011;44860;53.020;6.738;2024-01-15T07:47:33;25.80;;;5.53;;
59074;SDS011;44860;53.020;6.738;2024-01-15T07:49:59;19.05;;;4.05;;
59074;SDS011;44860;53.020;6.738;2024-01-15T07:52:25;12.45;;;2.97;;
59074;SDS011;44860;53.020;6.738;2024-01-15T07:54:51;16.25;;;4.32;;
59074;SDS011;44860;53.020;6.738;2024-01-15T07:57:17;14.73;;;7.45;;
59074;SDS011;44860;53.020;6.738;2024-01-15T07:59:42;12.75;;;5.43;;
59074;SDS011;44860;53.020;6.738;2024-01-15T08:02:08;13.00;;;4.10;;
59074;SDS011;44860;53.020;6.738;2024-01-15T08:04:36;13.73;;;3.75;;
59074;SDS011;44860;53.020;6.738;2024-01-15T08:07:02;13.80;;;3.88;;
59074;SDS011;44860;53.020;6.738;2024-01-15T08:09:28;14.45;;;2.53;;
59074;SDS011;44860;53.020;6.738;2024-01-15T08:11:54;11.30;;;2.20;;
59074;SDS011;44860;53.020;6.738;2024-01-15T08:14:20;10.65;;;1.90;;
59074;SDS011;44860;53.020;6.738;2024-01-15T08:16:45;14.38;;;2.08;;
59074;SDS011;44860;53.020;6.738;2024-01-15T08:19:11;14.07;;;2.17;;
59074;SDS011;44860;53.020;6.738;2024-01-15T08:21:37;11.48;;;1.75;;
59074;SDS011;44860;53.020;6.738;2024-01-15T08:24:03;10.65;;;1.90;;
59074;SDS011;44860;53.020;6.738;2024-01-15T08:26:29;10.75;;;2.45;;
59074;SDS011;44860;53.020;6.738;2024-01-15T08:28:55;10.63;;;1.90;;
59074;SDS011;44860;53.020;6.738;2024-01-15T08:31:20;9.60;;;2.08;;
59074;SDS011;44860;53.020;6.738;2024-01-15T08:33:46;11.77;;;1.92;;
59074;SDS011;44860;53.020;6.738;2024-01-15T08:36:12;14.07;;;2.08;;
59074;SDS011;44860;53.020;6.738;2024-01-15T08:38:38;13.40;;;1.75;;
59074;SDS011;44860;53.020;6.738;2024-01-15T08:41:04;10.68;;;1.77;;
59074;SDS011;44860;53.020;6.738;2024-01-15T08:43:29;11.93;;;1.88;;
59074;SDS011;44860;53.020;6.738;2024-01-15T08:45:58;14.25;;;1.98;;
59074;SDS011;44860;53.020;6.738;2024-01-15T08:48:24;10.02;;;1.70;;
59074;SDS011;44860;53.020;6.738;2024-01-15T08:50:52;13.82;;;2.25;;
59074;SDS011;44860;53.020;6.738;2024-01-15T08:53:18;12.75;;;2.15;;
59074;SDS011;44860;53.020;6.738;2024-01-15T08:55:44;11.38;;;1.90;;
59074;SDS011;44860;53.020;6.738;2024-01-15T08:58:10;14.10;;;2.67;;
59074;SDS011;44860;53.020;6.738;2024-01-15T09:00:36;13.10;;;2.20;;
59074;SDS011;44860;53.020;6.738;2024-01-15T09:03:02;14.40;;;2.35;;
59074;SDS011;44860;53.020;6.738;2024-01-15T09:05:28;12.05;;;2.28;;
59074;SDS011;44860;53.020;6.738;2024-01-15T09:07:54;14.30;;;2.60;;
59074;SDS011;44860;53.020;6.738;2024-01-15T09:10:20;17.10;;;2.75;;
59074;SDS011;44860;53.020;6.738;2024-01-15T09:12:45;16.83;;;2.35;;
59074;SDS011;44860;53.020;6.738;2024-01-15T09:15:11;10.20;;;2.13;;
59074;SDS011;44860;53.020;6.738;2024-01-15T09:17:37;14.65;;;2.40;;
59074;SDS011;44860;53.020;6.738;2024-01-15T09:20:03;15.27;;;2.00;;
59074;SDS011;44860;53.020;6.738;2024-01-15T09:22:30;13.75;;;2.55;;
59074;SDS011;44860;53.020;6.738;2024-01-15T09:24:57;8.07;;;1.45;;
59074;SDS011;44860;53.020;6.738;2024-01-15T09:27:23;6.32;;;1.20;;
59074;SDS011;44860;53.020;6.738;2024-01-15T09:29:51;10.77;;;1.45;;
59074;SDS011;44860;53.020;6.738;2024-01-15T09:32:17;7.60;;;1.25;;
59074;SDS011;44860;53.020;6.738;2024-01-15T09:34:43;8.70;;;1.17;;
59074;SDS011;44860;53.020;6.738;2024-01-15T09:37:11;7.55;;;1.20;;
59074;SDS011;44860;53.020;6.738;2024-01-15T09:39:37;6.32;;;1.05;;
59074;SDS011;44860;53.020;6.738;2024-01-15T09:42:02;5.65;;;1.02;;
59074;SDS011;44860;53.020;6.738;2024-01-15T09:44:29;8.90;;;1.30;;
59074;SDS011;44860;53.020;6.738;2024-01-15T09:46:55;6.43;;;1.13;;
59074;SDS011;44860;53.020;6.738;2024-01-15T09:49:22;5.07;;;1.35;;
59074;SDS011;44860;53.020;6.738;2024-01-15T09:51:48;7.43;;;1.25;;
59074;SDS011;44860;53.020;6.738;2024-01-15T09:54:14;11.13;;;1.35;;
59074;SDS011;44860;53.020;6.738;2024-01-15T09:56:42;8.13;;;1.50;;
59074;SDS011;44860;53.020;6.738;2024-01-15T09:59:10;14.50;;;3.92;;
59074;SDS011;44860;53.020;6.738;2024-01-15T10:01:39;16.92;;;2.70;;
59074;SDS011;44860;53.020;6.738;2024-01-15T10:04:06;11.52;;;2.80;;
59074;SDS011;44860;53.020;6.738;2024-01-15T10:06:31;11.65;;;3.78;;
59074;SDS011;44860;53.020;6.738;2024-01-15T10:08:58;12.57;;;3.35;;
59074;SDS011;44860;53.020;6.738;2024-01-15T10:11:24;11.48;;;2.13;;
59074;SDS011;44860;53.020;6.738;2024-01-15T10:13:50;8.98;;;3.65;;
59074;SDS011;44860;53.020;6.738;2024-01-15T10:16:18;14.60;;;6.32;;
59074;SDS011;44860;53.020;6.738;2024-01-15T10:18:44;12.85;;;3.83;;
59074;SDS011;44860;53.020;6.738;2024-01-15T10:21:10;13.60;;;2.60;;
59074;SDS011;44860;53.020;6.738;2024-01-15T10:23:36;15.68;;;4.20;;
59074;SDS011;44860;53.020;6.738;2024-01-15T10:26:02;19.02;;;6.90;;
59074;SDS011;44860;53.020;6.738;2024-01-15T10:28:30;20.40;;;11.40;;
59074;SDS011;44860;53.020;6.738;2024-01-15T10:30:57;17.83;;;4.20;;
59074;SDS011;44860;53.020;6.738;2024-01-15T10:33:26;13.50;;;5.78;;
59074;SDS011;44860;53.020;6.738;2024-01-15T10:35:56;11.60;;;4.20;;
59074;SDS011;44860;53.020;6.738;2024-01-15T10:38:23;14.07;;;3.25;;
59074;SDS011;44860;53.020;6.738;2024-01-15T10:40:52;16.75;;;3.00;;
59074;SDS011;44860;53.020;6.738;2024-01-15T10:43:19;12.68;;;2.20;;
59074;SDS011;44860;53.020;6.738;2024-01-15T10:45:45;10.38;;;2.42;;
59074;SDS011;44860;53.020;6.738;2024-01-15T10:48:12;13.23;;;3.55;;
59074;SDS011;44860;53.020;6.738;2024-01-15T10:50:38;11.90;;;3.53;;
59074;SDS011;44860;53.020;6.738;2024-01-15T10:53:04;14.90;;;4.93;;
59074;SDS011;44860;53.020;6.738;2024-01-15T10:55:34;14.45;;;8.90;;
59074;SDS011;44860;53.020;6.738;2024-01-15T10:58:01;14.00;;;4.22;;
59074;SDS011;44860;53.020;6.738;2024-01-15T11:00:28;17.33;;;4.22;;
59074;SDS011;44860;53.020;6.738;2024-01-15T11:02:55;15.02;;;2.83;;
59074;SDS011;44860;53.020;6.738;2024-01-15T11:05:21;14.80;;;5.20;;
59074;SDS011;44860;53.020;6.738;2024-01-15T11:07:50;15.02;;;5.47;;
59074;SDS011;44860;53.020;6.738;2024-01-15T11:13:39;11.05;;;2.55;;
59074;SDS011;44860;53.020;6.738;2024-01-15T11:18:28;11.55;;;2.38;;
59074;SDS011;44860;53.020;6.738;2024-01-15T11:23:45;9.40;;;1.88;;
59074;SDS011;44860;53.020;6.738;2024-01-15T11:34:21;5.55;;;0.90;;
59074;SDS011;44860;53.020;6.738;2024-01-15T11:37:08;5.63;;;1.05;;
59074;SDS011;44860;53.020;6.738;2024-01-15T11:42:08;6.85;;;0.90;;
59074;SDS011;44860;53.020;6.738;2024-01-15T11:44:34;4.97;;;0.70;;
59074;SDS011;44860;53.020;6.738;2024-01-15T11:47:01;4.13;;;0.73;;
59074;SDS011;44860;53.020;6.738;2024-01-15T11:51:59;2.92;;;1.10;;
59074;SDS011;44860;53.020;6.738;2024-01-15T11:54:28;3.17;;;0.93;;
59074;SDS011;44860;53.020;6.738;2024-01-15T11:57:01;3.28;;;0.82;;
59074;SDS011;44860;53.020;6.738;2024-01-15T11:59:32;4.13;;;0.90;;
59074;SDS011;44860;53.020;6.738;2024-01-15T12:01:57;3.38;;;1.20;;
59074;SDS011;44860;53.020;6.738;2024-01-15T12:04:23;2.63;;;0.88;;
59074;SDS011;44860;53.020;6.738;2024-01-15T12:06:49;3.83;;;0.90;;
59074;SDS011;44860;53.020;6.738;2024-01-15T12:09:15;2.05;;;0.60;;
59074;SDS011;44860;53.020;6.738;2024-01-15T12:11:45;9.18;;;1.90;;
59074;SDS011;44860;53.020;6.738;2024-01-15T12:14:16;4.57;;;1.80;;
59074;SDS011;44860;53.020;6.738;2024-01-15T12:16:42;6.68;;;3.03;;
59074;SDS011;44860;53.020;6.738;2024-01-15T12:19:08;5.90;;;2.90;;
59074;SDS011;44860;53.020;6.738;2024-01-15T12:21:34;4.75;;;1.42;;
59074;SDS011;44860;53.020;6.738;2024-01-15T12:23:59;4.10;;;0.63;;
59074;SDS011;44860;53.020;6.738;2024-01-15T12:26:25;2.45;;;0.82;;
59074;SDS011;44860;53.020;6.738;2024-01-15T12:28:51;2.95;;;1.00;;
59074;SDS011;44860;53.020;6.738;2024-01-15T12:31:16;6.00;;;2.42;;
59074;SDS011;44860;53.020;6.738;2024-01-15T12:33:44;2.03;;;0.93;;
59074;SDS011;44860;53.020;6.738;2024-01-15T12:36:12;2.22;;;0.75;;
59074;SDS011;44860;53.020;6.738;2024-01-15T12:38:38;6.15;;;0.90;;
59074;SDS011;44860;53.020;6.738;2024-01-15T12:41:04;5.78;;;2.72;;
59074;SDS011;44860;53.020;6.738;2024-01-15T12:43:30;4.68;;;2.65;;
59074;SDS011;44860;53.020;6.738;2024-01-15T12:45:56;5.90;;;2.00;;
59074;SDS011;44860;53.020;6.738;2024-01-15T12:48:22;6.25;;;1.92;;
59074;SDS011;44860;53.020;6.738;2024-01-15T12:50:47;4.93;;;1.40;;
59074;SDS011;44860;53.020;6.738;2024-01-15T12:53:13;3.22;;;1.05;;
59074;SDS011;44860;53.020;6.738;2024-01-15T12:55:39;5.38;;;0.95;;
59074;SDS011;44860;53.020;6.738;2024-01-15T12:58:04;4.55;;;1.10;;
59074;SDS011;44860;53.020;6.738;2024-01-15T13:00:30;5.30;;;0.90;;
59074;SDS011;44860;53.020;6.738;2024-01-15T13:02:56;4.28;;;0.85;;
59074;SDS011;44860;53.020;6.738;2024-01-15T13:05:22;7.82;;;1.05;;
59074;SDS011;44860;53.020;6.738;2024-01-15T13:07:48;10.98;;;3.92;;
59074;SDS011;44860;53.020;6.738;2024-01-15T13:10:14;7.30;;;3.40;;
59074;SDS011;44860;53.020;6.738;2024-01-15T13:12:40;5.18;;;1.80;;
59074;SDS011;44860;53.020;6.738;2024-01-15T13:15:06;3.78;;;1.50;;
59074;SDS011;44860;53.020;6.738;2024-01-15T13:17:36;10.25;;;2.45;;
59074;SDS011;44860;53.020;6.738;2024-01-15T13:20:02;6.75;;;1.83;;
59074;SDS011;44860;53.020;6.738;2024-01-15T13:22:28;10.52;;;2.05;;
59074;SDS011;44860;53.020;6.738;2024-01-15T13:24:57;9.98;;;1.60;;
59074;SDS011;44860;53.020;6.738;2024-01-15T13:27:23;11.30;;;2.17;;
59074;SDS011;44860;53.020;6.738;2024-01-15T13:29:49;12.50;;;3.13;;
59074;SDS011;44860;53.020;6.738;2024-01-15T13:32:16;10.90;;;2.47;;
59074;SDS011;44860;53.020;6.738;2024-01-15T13:34:47;14.75;;;2.28;;
59074;SDS011;44860;53.020;6.738;2024-01-15T13:37:13;14.10;;;2.22;;
59074;SDS011;44860;53.020;6.738;2024-01-15T13:39:39;13.88;;;2.00;;
59074;SDS011;44860;53.020;6.738;2024-01-15T13:42:05;11.40;;;1.60;;
59074;SDS011;44860;53.020;6.738;2024-01-15T13:44:30;10.27;;;1.83;;
59074;SDS011;44860;53.020;6.738;2024-01-15T13:46:56;8.95;;;1.55;;
59074;SDS011;44860;53.020;6.738;2024-01-15T13:49:22;12.82;;;2.10;;
59074;SDS011;44860;53.020;6.738;2024-01-15T13:51:48;9.43;;;1.50;;
59074;SDS011;44860;53.020;6.738;2024-01-15T13:54:15;11.32;;;2.95;;
59074;SDS011;44860;53.020;6.738;2024-01-15T13:56:40;11.23;;;2.35;;
59074;SDS011;44860;53.020;6.738;2024-01-15T13:59:07;22.85;;;11.13;;
59074;SDS011;44860;53.020;6.738;2024-01-15T14:01:33;9.23;;;2.13;;
59074;SDS011;44860;53.020;6.738;2024-01-15T14:03:59;10.05;;;2.63;;
59074;SDS011;44860;53.020;6.738;2024-01-15T14:06:25;9.32;;;1.90;;
59074;SDS011;44860;53.020;6.738;2024-01-15T14:08:51;9.23;;;1.63;;
59074;SDS011;44860;53.020;6.738;2024-01-15T14:11:17;8.30;;;1.58;;
59074;SDS011;44860;53.020;6.738;2024-01-15T14:13:42;10.20;;;3.00;;
59074;SDS011;44860;53.020;6.738;2024-01-15T14:16:08;6.13;;;1.60;;
59074;SDS011;44860;53.020;6.738;2024-01-15T14:18:34;9.85;;;1.45;;
59074;SDS011;44860;53.020;6.738;2024-01-15T14:21:00;7.53;;;1.58;;
59074;SDS011;44860;53.020;6.738;2024-01-15T14:23:26;11.48;;;1.85;;
59074;SDS011;44860;53.020;6.738;2024-01-15T14:25:51;11.85;;;1.77;;
59074;SDS011;44860;53.020;6.738;2024-01-15T14:28:17;11.60;;;1.90;;
59074;SDS011;44860;53.020;6.738;2024-01-15T14:30:43;11.45;;;1.70;;
59074;SDS011;44860;53.020;6.738;2024-01-15T14:33:08;8.45;;;1.75;;
59074;SDS011;44860;53.020;6.738;2024-01-15T14:35:34;14.23;;;1.92;;
59074;SDS011;44860;53.020;6.738;2024-01-15T14:38:00;11.23;;;1.80;;
59074;SDS011;44860;53.020;6.738;2024-01-15T14:40:26;10.43;;;2.10;;
59074;SDS011;44860;53.020;6.738;2024-01-15T14:42:51;11.63;;;1.90;;
59074;SDS011;44860;53.020;6.738;2024-01-15T14:45:18;10.10;;;2.17;;
59074;SDS011;44860;53.020;6.738;2024-01-15T14:47:44;10.40;;;2.35;;
59074;SDS011;44860;53.020;6.738;2024-01-15T14:50:09;11.85;;;3.10;;
59074;SDS011;44860;53.020;6.738;2024-01-15T14:52:35;10.43;;;2.13;;